Time,TemperatureF,DewpointF,PressureIn,WindDirection,WindDirectionDegrees,WindSpeedMPH,WindSpeedGustMPH,Humidity,HourlyPrecipIn,Conditions,Clouds,dailyrainin,SoftwareType,DateUTC
2013-03-02 00:04:00,21.2,2.2,30.08,North,350,0.0,0.0,43,0.00,,,-99.99,Weather View 32 v60,2013-03-02 05:04:00,
2013-03-02 00:09:00,21.0,2.0,30.08,North,353,0.0,0.0,43,0.00,,,-99.99,Weather View 32 v60,2013-03-02 05:09:00,
2013-03-02 00:13:00,21.0,2.0,30.08,North,353,0.0,0.0,43,0.00,,,-99.99,Weather View 32 v60,2013-03-02 05:13:00,
2013-03-02 00:14:00,20.7,1.7,30.08,North,350,0.0,0.0,43,0.00,,,-99.99,Weather View 32 v60,2013-03-02 05:14:00,
2013-03-02 00:19:00,20.5,1.5,30.08,North,350,0.0,0.0,43,0.00,,,-99.99,Weather View 32 v60,2013-03-02 05:19:00,
2013-03-02 00:24:00,20.3,1.4,30.08,North,350,0.0,0.0,43,0.00,,,-99.99,Weather View 32 v60,2013-03-02 05:24:00,
2013-03-02 00:29:00,20.1,1.2,30.08,North,350,0.0,0.0,43,0.00,,,-99.99,Weather View 32 v60,2013-03-02 05:29:00,
2013-03-02 00:34:00,19.9,1.0,30.08,North,350,0.0,0.0,43,0.00,,,-99.99,Weather View 32 v60,2013-03-02 05:34:00,
2013-03-02 00:39:00,19.8,0.9,30.08,NW,321,0.0,0.0,43,0.00,,,-99.99,Weather View 32 v60,2013-03-02 05:39:00,
2013-03-02 00:44:00,19.6,0.7,30.08,NW,322,0.0,0.0,43,0.00,,,-99.99,Weather View 32 v60,2013-03-02 05:44:00,
2013-03-02 00:49:00,19.4,1.0,30.08,NW,322,0.0,0.0,44,0.00,,,-99.99,Weather View 32 v60,2013-03-02 05:49:00,
2013-03-02 00:54:00,19.2,0.9,30.08,NNW,331,0.0,0.0,44,0.00,,,-99.99,Weather View 32 v60,2013-03-02 05:54:00,
2013-03-02 00:59:00,19.2,0.9,30.08,NNW,331,0.0,0.0,44,0.00,,,-99.99,Weather View 32 v60,2013-03-02 05:59:00,
2013-03-02 01:04:00,19.0,0.7,30.08,NNW,331,0.0,0.0,44,0.00,,,-99.99,Weather View 32 v60,2013-03-02 06:04:00,
2013-03-02 01:09:00,18.7,0.4,30.08,NNW,341,0.0,0.0,44,0.00,,,-99.99,Weather View 32 v60,2013-03-02 06:09:00,
2013-03-02 01:14:00,18.7,0.4,30.08,North,0,0.0,0.0,44,0.00,,,-99.99,Weather View 32 v60,2013-03-02 06:14:00,
2013-03-02 01:19:00,18.5,0.2,30.08,North,353,0.0,0.0,44,0.00,,,-99.99,Weather View 32 v60,2013-03-02 06:19:00,
2013-03-02 01:24:00,18.5,0.2,30.08,North,0,0.0,0.0,44,0.00,,,-99.99,Weather View 32 v60,2013-03-02 06:24:00,
2013-03-02 01:29:00,18.3,0.0,30.08,NNW,340,0.0,0.0,44,0.00,,,-99.99,Weather View 32 v60,2013-03-02 06:29:00,
2013-03-02 01:34:00,18.3,0.0,30.08,North,353,0.0,0.0,44,0.00,,,-99.99,Weather View 32 v60,2013-03-02 06:34:00,
2013-03-02 01:39:00,18.3,0.0,30.08,North,353,0.0,0.0,44,0.00,,,-99.99,Weather View 32 v60,2013-03-02 06:39:00,
2013-03-02 01:44:00,18.3,0.0,30.08,North,353,0.0,0.0,44,0.00,,,-99.99,Weather View 32 v60,2013-03-02 06:44:00,
2013-03-02 01:49:00,18.3,0.0,30.08,NNW,346,0.0,0.0,44,0.00,,,-99.99,Weather View 32 v60,2013-03-02 06:49:00,
2013-03-02 01:54:00,18.3,0.0,30.08,NNW,345,0.0,0.0,44,0.00,,,-99.99,Weather View 32 v60,2013-03-02 06:54:00,
2013-03-02 01:59:00,18.3,0.0,30.08,NNW,345,0.0,0.0,44,0.00,,,-99.99,Weather View 32 v60,2013-03-02 06:59:00,
2013-03-02 02:04:00,18.3,0.0,30.08,North,0,0.0,0.0,44,0.00,,,-99.99,Weather View 32 v60,2013-03-02 07:04:00,
2013-03-02 02:09:00,18.3,0.0,30.08,North,353,0.0,0.0,44,0.00,,,-99.99,Weather View 32 v60,2013-03-02 07:09:00,
2013-03-02 02:14:00,18.3,0.0,30.08,North,357,0.0,0.0,44,0.00,,,-99.99,Weather View 32 v60,2013-03-02 07:14:00,
2013-03-02 02:19:00,18.3,0.0,30.08,NNW,343,0.0,0.0,44,0.00,,,-99.99,Weather View 32 v60,2013-03-02 07:19:00,
2013-03-02 02:24:00,18.3,0.0,30.08,NNW,348,0.0,0.0,44,0.00,,,-99.99,Weather View 32 v60,2013-03-02 07:24:00,
2013-03-02 02:29:00,18.3,0.0,30.08,NNE,16,0.0,0.0,44,0.00,,,-99.99,Weather View 32 v60,2013-03-02 07:29:00,
2013-03-02 02:34:00,18.3,0.0,30.08,NNW,343,0.0,0.0,44,0.00,,,-99.99,Weather View 32 v60,2013-03-02 07:34:00,
2013-03-02 02:39:00,18.3,0.0,30.08,NNE,22,0.0,0.0,44,0.00,,,-99.99,Weather View 32 v60,2013-03-02 07:39:00,
2013-03-02 02:44:00,18.3,0.0,30.08,NNW,331,0.0,0.0,44,0.00,,,-99.99,Weather View 32 v60,2013-03-02 07:44:00,
2013-03-02 02:49:00,18.3,0.0,30.08,NNW,344,0.0,0.0,44,0.00,,,-99.99,Weather View 32 v60,2013-03-02 07:49:00,
2013-03-02 02:54:00,18.3,0.0,30.08,NE,37,0.0,0.0,44,0.00,,,-99.99,Weather View 32 v60,2013-03-02 07:54:00,
2013-03-02 02:59:00,18.5,0.2,30.08,North,6,0.0,0.0,44,0.00,,,-99.99,Weather View 32 v60,2013-03-02 07:59:00,
2013-03-02 03:04:00,18.5,0.2,30.08,North,8,0.0,0.0,44,0.00,,,-99.99,Weather View 32 v60,2013-03-02 08:04:00,
2013-03-02 03:09:00,18.5,0.2,30.08,NNE,30,0.0,0.0,44,0.00,,,-99.99,Weather View 32 v60,2013-03-02 08:09:00,
2013-03-02 03:15:00,18.5,0.2,30.08,North,10,0.0,0.0,44,0.00,,,-99.99,Weather View 32 v60,2013-03-02 08:15:00,
2013-03-02 03:24:00,18.5,0.2,30.08,North,357,0.0,0.0,44,0.00,,,-99.99,Weather View 32 v60,2013-03-02 08:24:00,
2013-03-02 03:29:00,18.7,0.9,30.08,North,0,0.0,0.0,45,0.00,,,-99.99,Weather View 32 v60,2013-03-02 08:29:00,
2013-03-02 03:34:00,18.7,0.9,30.08,NNE,25,0.0,0.0,45,0.00,,,-99.99,Weather View 32 v60,2013-03-02 08:34:00,
2013-03-02 03:39:00,18.7,0.9,30.08,North,357,0.0,0.0,45,0.00,,,-99.99,Weather View 32 v60,2013-03-02 08:39:00,
2013-03-02 03:44:00,18.7,0.9,30.08,NNE,14,0.0,0.0,45,0.00,,,-99.99,Weather View 32 v60,2013-03-02 08:44:00,
2013-03-02 03:49:00,18.7,0.9,30.08,NNW,342,0.0,0.0,45,0.00,,,-99.99,Weather View 32 v60,2013-03-02 08:49:00,
2013-03-02 03:54:00,18.7,0.9,30.08,NNE,16,0.0,0.0,45,0.00,,,-99.99,Weather View 32 v60,2013-03-02 08:54:00,
2013-03-02 03:59:00,18.7,0.9,30.08,NNE,12,0.0,0.0,45,0.00,,,-99.99,Weather View 32 v60,2013-03-02 08:59:00,
2013-03-02 04:04:00,18.7,0.9,30.08,NNE,28,0.0,0.0,45,0.00,,,-99.99,Weather View 32 v60,2013-03-02 09:04:00,
2013-03-02 04:10:00,18.7,0.9,30.08,NNW,335,0.0,0.0,45,0.00,,,-99.99,Weather View 32 v60,2013-03-02 09:10:00,
2013-03-02 04:15:00,18.7,0.9,30.08,NW,320,0.0,0.0,45,0.00,,,-99.99,Weather View 32 v60,2013-03-02 09:15:00,
2013-03-02 04:24:00,18.7,0.9,30.05,NNW,348,0.0,0.0,45,0.00,,,-99.99,Weather View 32 v60,2013-03-02 09:24:00,
2013-03-02 04:34:00,18.7,0.9,30.05,NNW,335,0.0,0.0,45,0.00,,,-99.99,Weather View 32 v60,2013-03-02 09:34:00,
2013-03-02 04:44:00,18.7,0.9,30.05,NW,323,0.0,0.0,45,0.00,,,-99.99,Weather View 32 v60,2013-03-02 09:44:00,
2013-03-02 04:49:00,18.7,0.9,30.05,NNW,327,0.0,0.0,45,0.00,,,-99.99,Weather View 32 v60,2013-03-02 09:49:00,
2013-03-02 04:54:00,18.7,0.9,30.05,NNW,331,0.0,0.0,45,0.00,,,-99.99,Weather View 32 v60,2013-03-02 09:54:00,
2013-03-02 04:59:00,18.7,0.9,30.05,NNW,344,0.0,0.0,45,0.00,,,-99.99,Weather View 32 v60,2013-03-02 09:59:00,
2013-03-02 05:04:00,18.7,1.3,30.05,North,353,0.0,0.0,46,0.00,,,-99.99,Weather View 32 v60,2013-03-02 10:04:00,
2013-03-02 05:10:00,18.7,1.3,30.05,NNW,335,0.0,0.0,46,0.00,,,-99.99,Weather View 32 v60,2013-03-02 10:10:00,
2013-03-02 05:16:00,18.7,1.3,30.05,North,357,0.0,0.0,46,0.00,,,-99.99,Weather View 32 v60,2013-03-02 10:16:00,
2013-03-02 05:24:00,18.9,1.5,30.05,NNW,340,0.0,0.0,46,0.00,,,-99.99,Weather View 32 v60,2013-03-02 10:24:00,
2013-03-02 05:29:00,18.9,1.5,30.05,NNW,336,0.0,0.0,46,0.00,,,-99.99,Weather View 32 v60,2013-03-02 10:29:00,
2013-03-02 05:44:00,19.0,1.7,30.05,North,353,0.0,0.0,46,0.00,,,-99.99,Weather View 32 v60,2013-03-02 10:44:00,
2013-03-02 05:49:00,19.0,1.7,30.05,NNW,335,0.0,0.0,46,0.00,,,-99.99,Weather View 32 v60,2013-03-02 10:49:00,
2013-03-02 05:54:00,19.0,1.7,30.05,North,11,0.0,0.0,46,0.00,,,-99.99,Weather View 32 v60,2013-03-02 10:54:00,
2013-03-02 05:59:00,19.0,2.1,30.05,North,0,0.0,0.0,47,0.00,,,-99.99,Weather View 32 v60,2013-03-02 10:59:00,
2013-03-02 06:04:00,19.0,2.1,30.05,North,0,0.0,0.0,47,0.00,,,-99.99,Weather View 32 v60,2013-03-02 11:04:00,
2013-03-02 06:09:00,19.0,2.1,30.05,North,357,0.0,0.0,47,0.00,,,-99.99,Weather View 32 v60,2013-03-02 11:09:00,
2013-03-02 06:14:00,19.0,2.1,30.05,NNE,13,0.0,0.0,47,0.00,,,-99.99,Weather View 32 v60,2013-03-02 11:14:00,
2013-03-02 06:19:00,19.0,2.1,30.05,North,4,0.0,0.0,47,0.00,,,-99.99,Weather View 32 v60,2013-03-02 11:19:00,
2013-03-02 06:24:00,19.0,2.1,30.05,North,357,0.0,0.0,47,0.00,,,-99.99,Weather View 32 v60,2013-03-02 11:24:00,
2013-03-02 06:29:00,19.0,2.1,30.05,North,357,0.0,0.0,47,0.00,,,-99.99,Weather View 32 v60,2013-03-02 11:29:00,
2013-03-02 06:39:00,19.0,2.1,30.05,North,353,0.0,0.0,47,0.00,,,-99.99,Weather View 32 v60,2013-03-02 11:39:00,
2013-03-02 06:44:00,19.0,2.1,30.05,North,4,0.0,0.0,47,0.00,,,-99.99,Weather View 32 v60,2013-03-02 11:44:00,
2013-03-02 06:49:00,19.0,2.1,30.05,NNW,345,0.0,0.0,47,0.00,,,-99.99,Weather View 32 v60,2013-03-02 11:49:00,
2013-03-02 06:54:00,19.0,2.1,30.08,NNW,328,0.0,0.0,47,0.00,,,-99.99,Weather View 32 v60,2013-03-02 11:54:00,
2013-03-02 06:59:00,19.0,2.1,30.08,NNW,344,0.0,0.0,47,0.00,,,-99.99,Weather View 32 v60,2013-03-02 11:59:00,
2013-03-02 07:04:00,19.0,2.1,30.08,North,3,0.0,0.0,47,0.00,,,-99.99,Weather View 32 v60,2013-03-02 12:04:00,
2013-03-02 07:09:00,19.0,2.1,30.08,North,2,0.0,0.0,47,0.00,,,-99.99,Weather View 32 v60,2013-03-02 12:09:00,
2013-03-02 07:14:00,19.2,2.7,30.08,North,3,0.0,0.0,48,0.00,,,-99.99,Weather View 32 v60,2013-03-02 12:14:00,
2013-03-02 07:19:00,19.2,2.7,30.08,NNE,17,0.0,0.0,48,0.00,,,-99.99,Weather View 32 v60,2013-03-02 12:19:00,
2013-03-02 07:24:00,19.2,2.7,30.08,North,5,0.0,0.0,48,0.00,,,-99.99,Weather View 32 v60,2013-03-02 12:24:00,
2013-03-02 07:29:00,19.2,2.7,30.08,NNE,12,0.0,0.0,48,0.00,,,-99.99,Weather View 32 v60,2013-03-02 12:29:00,
2013-03-02 07:34:00,19.2,2.7,30.08,North,357,0.0,0.0,48,0.00,,,-99.99,Weather View 32 v60,2013-03-02 12:34:00,
2013-03-02 07:39:00,19.2,2.7,30.08,North,357,0.0,0.0,48,0.00,,,-99.99,Weather View 32 v60,2013-03-02 12:39:00,
2013-03-02 07:44:00,19.2,2.7,30.08,North,0,0.0,0.0,48,0.00,,,-99.99,Weather View 32 v60,2013-03-02 12:44:00,
2013-03-02 07:49:00,19.4,3.4,30.08,NNW,338,0.0,0.0,49,0.00,,,-99.99,Weather View 32 v60,2013-03-02 12:49:00,
2013-03-02 07:54:00,19.4,3.4,30.08,North,2,0.0,0.0,49,0.00,,,-99.99,Weather View 32 v60,2013-03-02 12:54:00,
2013-03-02 07:59:00,19.4,3.4,30.08,North,357,0.0,0.0,49,0.00,,,-99.99,Weather View 32 v60,2013-03-02 12:59:00,
2013-03-02 08:04:00,19.6,3.5,30.08,North,353,0.0,0.0,49,0.00,,,-99.99,Weather View 32 v60,2013-03-02 13:04:00,
2013-03-02 08:09:00,19.6,3.5,30.08,North,353,0.0,0.0,49,0.00,,,-99.99,Weather View 32 v60,2013-03-02 13:09:00,
2013-03-02 08:14:00,19.6,3.5,30.08,NNW,335,0.0,0.0,49,0.00,,,-99.99,Weather View 32 v60,2013-03-02 13:14:00,
2013-03-02 08:19:00,19.6,3.5,30.08,NNW,339,0.0,0.0,49,0.00,,,-99.99,Weather View 32 v60,2013-03-02 13:19:00,
2013-03-02 08:24:00,19.8,3.7,30.08,NNW,337,0.0,0.0,49,0.00,,,-99.99,Weather View 32 v60,2013-03-02 13:24:00,
2013-03-02 08:29:00,19.8,3.7,30.08,NNW,335,0.0,0.0,49,0.00,,,-99.99,Weather View 32 v60,2013-03-02 13:29:00,
2013-03-02 08:34:00,19.8,3.2,30.08,NNW,345,0.0,0.0,48,0.00,,,-99.99,Weather View 32 v60,2013-03-02 13:34:00,
2013-03-02 08:39:00,19.8,3.7,30.08,NNW,348,0.0,0.0,49,0.00,,,-99.99,Weather View 32 v60,2013-03-02 13:39:00,
2013-03-02 08:44:00,19.8,3.2,30.08,North,8,0.0,0.0,48,0.00,,,-99.99,Weather View 32 v60,2013-03-02 13:44:00,
2013-03-02 08:49:00,19.9,3.4,30.08,NNW,342,0.0,0.0,48,0.00,,,-99.99,Weather View 32 v60,2013-03-02 13:49:00,
2013-03-02 08:54:00,19.9,3.4,30.08,North,0,0.0,0.0,48,0.00,,,-99.99,Weather View 32 v60,2013-03-02 13:54:00,
2013-03-02 08:59:00,19.9,3.4,30.08,NNW,340,0.0,0.0,48,0.00,,,-99.99,Weather View 32 v60,2013-03-02 13:59:00,
2013-03-02 09:04:00,19.9,3.4,30.08,NNW,332,0.0,0.0,48,0.00,,,-99.99,Weather View 32 v60,2013-03-02 14:04:00,
2013-03-02 09:09:00,19.9,3.4,30.08,NNW,328,0.0,0.0,48,0.00,,,-99.99,Weather View 32 v60,2013-03-02 14:09:00,
2013-03-02 09:14:00,20.1,3.6,30.08,NNW,332,0.0,0.0,48,0.00,,,-99.99,Weather View 32 v60,2013-03-02 14:14:00,
2013-03-02 09:19:00,20.1,3.6,30.08,NNW,329,0.0,0.0,48,0.00,,,-99.99,Weather View 32 v60,2013-03-02 14:19:00,
2013-03-02 09:24:00,20.1,3.6,30.08,North,353,0.0,0.0,48,0.00,,,-99.99,Weather View 32 v60,2013-03-02 14:24:00,
2013-03-02 09:29:00,20.3,3.7,30.08,North,6,0.0,0.0,48,0.00,,,-99.99,Weather View 32 v60,2013-03-02 14:29:00,
2013-03-02 09:34:00,20.3,3.3,30.08,NNW,340,0.0,0.0,47,0.00,,,-99.99,Weather View 32 v60,2013-03-02 14:34:00,
2013-03-02 09:39:00,20.3,3.3,30.08,NW,318,0.0,0.0,47,0.00,,,-99.99,Weather View 32 v60,2013-03-02 14:39:00,
2013-03-02 09:44:00,20.3,3.7,30.08,North,357,0.0,0.0,48,0.00,,,-99.99,Weather View 32 v60,2013-03-02 14:44:00,
2013-03-02 09:49:00,20.5,3.9,30.08,North,0,0.0,0.0,48,0.00,,,-99.99,Weather View 32 v60,2013-03-02 14:49:00,
2013-03-02 09:54:00,20.5,3.4,30.08,NW,320,0.0,0.0,47,0.00,,,-99.99,Weather View 32 v60,2013-03-02 14:54:00,
2013-03-02 09:59:00,20.5,3.0,30.08,NNW,336,0.0,0.0,46,0.00,,,-99.99,Weather View 32 v60,2013-03-02 14:59:00,
2013-03-02 10:04:00,20.5,3.0,30.08,NW,311,0.0,0.0,46,0.00,,,-99.99,Weather View 32 v60,2013-03-02 15:04:00,
2013-03-02 10:09:00,20.5,3.0,30.08,NNW,332,0.0,0.0,46,0.00,,,-99.99,Weather View 32 v60,2013-03-02 15:09:00,
2013-03-02 10:14:00,20.7,3.1,30.08,NNE,17,0.0,0.0,46,0.00,,,-99.99,Weather View 32 v60,2013-03-02 15:14:00,
2013-03-02 10:19:00,20.7,3.1,30.08,North,9,0.0,0.0,46,0.00,,,-99.99,Weather View 32 v60,2013-03-02 15:19:00,
2013-03-02 10:24:00,20.7,3.1,30.08,North,353,0.0,0.0,46,0.00,,,-99.99,Weather View 32 v60,2013-03-02 15:24:00,
2013-03-02 10:29:00,20.8,2.8,30.08,NNW,335,0.0,0.0,45,0.00,,,-99.99,Weather View 32 v60,2013-03-02 15:29:00,
2013-03-02 10:34:00,20.7,2.7,30.08,NNW,344,0.0,0.0,45,0.00,,,-99.99,Weather View 32 v60,2013-03-02 15:34:00,
2013-03-02 10:39:00,20.5,2.5,30.08,NNW,338,0.0,0.0,45,0.00,,,-99.99,Weather View 32 v60,2013-03-02 15:39:00,
2013-03-02 10:44:00,20.5,2.5,30.08,NNW,345,0.0,0.0,45,0.00,,,-99.99,Weather View 32 v60,2013-03-02 15:44:00,
2013-03-02 10:49:00,20.5,2.5,30.08,North,353,3.0,6.0,45,0.00,,,-99.99,Weather View 32 v60,2013-03-02 15:49:00,
2013-03-02 10:54:00,20.7,2.7,30.08,North,0,3.0,6.0,45,0.00,,,-99.99,Weather View 32 v60,2013-03-02 15:54:00,
2013-03-02 10:59:00,20.7,2.7,30.08,North,0,2.0,6.0,45,0.00,,,-99.99,Weather View 32 v60,2013-03-02 15:59:00,
2013-03-02 11:09:00,21.0,3.0,30.08,North,0,3.0,6.0,45,0.00,,,-99.99,Weather View 32 v60,2013-03-02 16:09:00,
2013-03-02 11:14:00,21.0,2.5,30.08,NW,317,5.0,6.0,44,0.00,,,-99.99,Weather View 32 v60,2013-03-02 16:14:00,
2013-03-02 11:19:00,20.8,2.4,30.08,NW,316,4.0,8.0,44,0.00,,,-99.99,Weather View 32 v60,2013-03-02 16:19:00,
2013-03-02 11:24:00,20.7,2.2,30.08,NW,312,4.0,8.0,44,0.00,,,-99.99,Weather View 32 v60,2013-03-02 16:24:00,
2013-03-02 11:34:00,20.7,2.2,30.08,NW,326,4.0,8.0,44,0.00,,,-99.99,Weather View 32 v60,2013-03-02 16:34:00,
2013-03-02 11:39:00,20.5,2.0,30.08,WNW,291,4.0,8.0,44,0.00,,,-99.99,Weather View 32 v60,2013-03-02 16:39:00,
2013-03-02 11:44:00,20.5,2.0,30.08,NNW,332,3.0,8.0,44,0.00,,,-99.99,Weather View 32 v60,2013-03-02 16:44:00,
2013-03-02 11:49:00,20.7,2.2,30.08,NNW,337,3.0,8.0,44,0.00,,,-99.99,Weather View 32 v60,2013-03-02 16:49:00,
2013-03-02 11:54:00,20.7,2.2,30.08,North,0,3.0,8.0,44,0.00,,,-99.99,Weather View 32 v60,2013-03-02 16:54:00,
2013-03-02 11:59:00,20.7,2.2,30.08,North,353,3.0,8.0,44,0.00,,,-99.99,Weather View 32 v60,2013-03-02 16:59:00,
2013-03-02 12:04:00,20.8,2.4,30.08,NNW,335,3.0,8.0,44,0.00,,,-99.99,Weather View 32 v60,2013-03-02 17:04:00,
2013-03-02 12:09:00,20.8,2.4,30.08,NW,320,3.0,8.0,44,0.00,,,-99.99,Weather View 32 v60,2013-03-02 17:09:00,
2013-03-02 12:14:00,20.8,2.4,30.08,NNE,14,0.0,8.0,44,0.00,,,-99.99,Weather View 32 v60,2013-03-02 17:14:00,
2013-03-02 12:20:00,21.0,2.5,30.08,North,357,0.0,8.0,44,0.00,,,-99.99,Weather View 32 v60,2013-03-02 17:20:00,
2013-03-02 12:29:00,21.2,2.7,30.08,NNW,331,2.0,8.0,44,0.00,,,-99.99,Weather View 32 v60,2013-03-02 17:29:00,
2013-03-02 12:34:00,21.4,2.3,30.08,North,0,3.0,8.0,43,0.00,,,-99.99,Weather View 32 v60,2013-03-02 17:34:00,
2013-03-02 12:39:00,21.4,2.3,30.05,NNE,18,3.0,6.0,43,0.00,,,-99.99,Weather View 32 v60,2013-03-02 17:39:00,
2013-03-02 12:44:00,21.6,3.0,30.05,NNW,342,0.0,6.0,44,0.00,,,-99.99,Weather View 32 v60,2013-03-02 17:44:00,
2013-03-02 12:49:00,21.6,3.0,30.05,NNE,32,0.0,6.0,44,0.00,,,-99.99,Weather View 32 v60,2013-03-02 17:49:00,
2013-03-02 12:54:00,21.7,2.7,30.05,North,6,0.0,6.0,43,0.00,,,-99.99,Weather View 32 v60,2013-03-02 17:54:00,
2013-03-02 12:59:00,21.9,3.3,30.05,ENE,78,3.0,6.0,44,0.00,,,-99.99,Weather View 32 v60,2013-03-02 17:59:00,
2013-03-02 13:04:00,21.9,3.3,30.05,North,0,0.0,8.0,44,0.00,,,-99.99,Weather View 32 v60,2013-03-02 18:04:00,
2013-03-02 13:09:00,22.3,3.7,30.05,NNE,15,0.0,8.0,44,0.00,,,-99.99,Weather View 32 v60,2013-03-02 18:09:00,
2013-03-02 13:14:00,22.3,3.2,30.05,NW,305,4.0,8.0,43,0.00,,,-99.99,Weather View 32 v60,2013-03-02 18:14:00,
2013-03-02 13:19:00,22.3,3.2,30.05,NW,305,0.0,8.0,43,0.00,,,-99.99,Weather View 32 v60,2013-03-02 18:19:00,
2013-03-02 13:24:00,22.5,3.3,30.05,WNW,300,4.0,8.0,43,0.00,,,-99.99,Weather View 32 v60,2013-03-02 18:24:00,
2013-03-02 13:29:00,22.6,3.5,30.05,NNW,327,0.0,8.0,43,0.00,,,-99.99,Weather View 32 v60,2013-03-02 18:29:00,
2013-03-02 13:34:00,22.6,3.5,30.05,NW,316,0.0,8.0,43,0.00,,,-99.99,Weather View 32 v60,2013-03-02 18:34:00,
2013-03-02 13:39:00,22.8,3.7,30.05,North,10,3.0,8.0,43,0.00,,,-99.99,Weather View 32 v60,2013-03-02 18:39:00,
2013-03-02 13:44:00,22.8,4.2,30.05,North,5,3.0,8.0,44,0.00,,,-99.99,Weather View 32 v60,2013-03-02 18:44:00,
2013-03-02 13:49:00,23.0,4.3,30.05,NE,50,0.0,8.0,44,0.00,,,-99.99,Weather View 32 v60,2013-03-02 18:49:00,
2013-03-02 13:54:00,23.2,4.0,30.05,NNW,344,0.0,8.0,43,0.00,,,-99.99,Weather View 32 v60,2013-03-02 18:54:00,
2013-03-02 13:59:00,23.4,4.2,30.05,NW,320,3.0,8.0,43,0.00,,,-99.99,Weather View 32 v60,2013-03-02 18:59:00,
2013-03-02 14:04:00,23.4,4.2,30.05,NW,312,5.0,5.0,43,0.00,,,-99.99,Weather View 32 v60,2013-03-02 19:04:00,
2013-03-02 14:09:00,23.5,4.3,30.05,North,353,0.0,5.0,43,0.00,,,-99.99,Weather View 32 v60,2013-03-02 19:09:00,
2013-03-02 14:14:00,23.5,3.8,30.05,NW,321,3.0,5.0,42,0.00,,,-99.99,Weather View 32 v60,2013-03-02 19:14:00,
2013-03-02 14:19:00,23.5,3.8,30.05,NNW,343,3.0,5.0,42,0.00,,,-99.99,Weather View 32 v60,2013-03-02 19:19:00,
2013-03-02 14:24:00,23.5,3.8,30.05,NW,307,2.0,5.0,42,0.00,,,-99.99,Weather View 32 v60,2013-03-02 19:24:00,
2013-03-02 14:29:00,23.5,4.3,30.05,NW,326,0.0,5.0,43,0.00,,,-99.99,Weather View 32 v60,2013-03-02 19:29:00,
2013-03-02 14:34:00,23.5,4.3,30.05,WNW,294,4.0,5.0,43,0.00,,,-99.99,Weather View 32 v60,2013-03-02 19:34:00,
2013-03-02 14:39:00,23.5,4.3,30.02,NW,308,3.0,5.0,43,0.00,,,-99.99,Weather View 32 v60,2013-03-02 19:39:00,
2013-03-02 14:44:00,23.5,3.8,30.02,North,349,0.0,5.0,42,0.00,,,-99.99,Weather View 32 v60,2013-03-02 19:44:00,
2013-03-02 14:54:00,23.5,3.8,30.02,WNW,302,5.0,8.0,42,0.00,,,-99.99,Weather View 32 v60,2013-03-02 19:54:00,
2013-03-02 14:59:00,23.5,3.8,30.02,NW,315,0.0,8.0,42,0.00,,,-99.99,Weather View 32 v60,2013-03-02 19:59:00,
2013-03-02 15:04:00,23.5,3.8,30.02,NW,322,0.0,8.0,42,0.00,,,-99.99,Weather View 32 v60,2013-03-02 20:04:00,
2013-03-02 15:09:00,23.7,4.0,30.02,NW,321,3.0,8.0,42,0.00,,,-99.99,Weather View 32 v60,2013-03-02 20:09:00,
2013-03-02 15:14:00,23.7,4.0,30.02,NW,316,0.0,8.0,42,0.00,,,-99.99,Weather View 32 v60,2013-03-02 20:14:00,
2013-03-02 15:19:00,23.9,4.6,30.02,NW,318,0.0,8.0,43,0.00,,,-99.99,Weather View 32 v60,2013-03-02 20:19:00,
2013-03-02 15:24:00,23.9,4.6,30.02,NW,324,3.0,8.0,43,0.00,,,-99.99,Weather View 32 v60,2013-03-02 20:24:00,
2013-03-02 15:29:00,24.1,4.3,30.02,WNW,301,4.0,8.0,42,0.00,,,-99.99,Weather View 32 v60,2013-03-02 20:29:00,
2013-03-02 15:34:00,24.1,4.3,30.02,NW,309,4.0,8.0,42,0.00,,,-99.99,Weather View 32 v60,2013-03-02 20:34:00,
2013-03-02 15:39:00,24.1,4.3,30.02,NW,320,0.0,8.0,42,0.00,,,-99.99,Weather View 32 v60,2013-03-02 20:39:00,
2013-03-02 15:44:00,24.1,4.3,30.02,NW,322,3.0,8.0,42,0.00,,,-99.99,Weather View 32 v60,2013-03-02 20:44:00,
2013-03-02 15:49:00,24.1,4.3,30.02,NNW,338,0.0,6.0,42,0.00,,,-99.99,Weather View 32 v60,2013-03-02 20:49:00,
2013-03-02 15:55:00,24.1,4.3,30.02,North,353,2.0,6.0,42,0.00,,,-99.99,Weather View 32 v60,2013-03-02 20:55:00,
2013-03-02 16:00:00,24.1,4.3,30.02,NW,312,3.0,6.0,42,0.00,,,-99.99,Weather View 32 v60,2013-03-02 21:00:00,
2013-03-02 16:05:00,24.3,4.5,30.02,NNW,342,0.0,6.0,42,0.00,,,-99.99,Weather View 32 v60,2013-03-02 21:05:00,
2013-03-02 16:10:00,24.3,4.5,30.02,NNE,22,0.0,6.0,42,0.00,,,-99.99,Weather View 32 v60,2013-03-02 21:10:00,
2013-03-02 16:15:00,24.4,4.6,30.02,NNW,348,0.0,6.0,42,0.00,,,-99.99,Weather View 32 v60,2013-03-02 21:15:00,
2013-03-02 16:20:00,24.4,4.6,30.02,NW,315,3.0,6.0,42,0.00,,,-99.99,Weather View 32 v60,2013-03-02 21:20:00,
2013-03-02 16:25:00,24.4,4.6,30.02,NNW,327,0.0,6.0,42,0.00,,,-99.99,Weather View 32 v60,2013-03-02 21:25:00,
2013-03-02 16:30:00,24.4,4.6,30.02,WNW,290,0.0,6.0,42,0.00,,,-99.99,Weather View 32 v60,2013-03-02 21:30:00,
2013-03-02 16:40:00,24.6,4.8,30.02,WNW,294,3.0,6.0,42,0.00,,,-99.99,Weather View 32 v60,2013-03-02 21:40:00,
2013-03-02 16:45:00,24.6,4.8,30.02,WNW,283,2.0,6.0,42,0.00,,,-99.99,Weather View 32 v60,2013-03-02 21:45:00,
2013-03-02 16:50:00,24.6,4.8,30.02,West,281,0.0,6.0,42,0.00,,,-99.99,Weather View 32 v60,2013-03-02 21:50:00,
2013-03-02 16:55:00,24.8,5.0,30.02,West,281,0.0,6.0,42,0.00,,,-99.99,Weather View 32 v60,2013-03-02 21:55:00,
2013-03-02 17:05:00,24.8,5.0,30.02,WNW,299,4.0,6.0,42,0.00,,,-99.99,Weather View 32 v60,2013-03-02 22:05:00,
2013-03-02 17:10:00,25.0,4.6,30.02,NW,313,3.0,6.0,41,0.00,,,-99.99,Weather View 32 v60,2013-03-02 22:10:00,
2013-03-02 17:15:00,25.0,4.6,30.02,NW,304,4.0,6.0,41,0.00,,,-99.99,Weather View 32 v60,2013-03-02 22:15:00,
2013-03-02 17:23:00,25.0,4.6,30.02,NW,312,0.0,6.0,41,0.00,,,-99.99,Weather View 32 v60,2013-03-02 22:23:00,
2013-03-02 17:30:00,25.0,4.6,30.02,WNW,289,3.0,5.0,41,0.00,,,-99.99,Weather View 32 v60,2013-03-02 22:30:00,
2013-03-02 17:35:00,25.0,4.6,30.02,WNW,289,4.0,5.0,41,0.00,,,-99.99,Weather View 32 v60,2013-03-02 22:35:00,
2013-03-02 17:40:00,25.0,4.6,30.02,WNW,295,5.0,5.0,41,0.00,,,-99.99,Weather View 32 v60,2013-03-02 22:40:00,
2013-03-02 17:45:00,25.0,4.6,30.02,WNW,295,4.0,5.0,41,0.00,,,-99.99,Weather View 32 v60,2013-03-02 22:45:00,
2013-03-02 17:50:00,25.0,4.6,30.02,WNW,295,2.0,5.0,41,0.00,,,-99.99,Weather View 32 v60,2013-03-02 22:50:00,
2013-03-02 18:00:00,24.8,5.0,30.02,WNW,294,0.0,5.0,42,0.00,,,-99.99,Weather View 32 v60,2013-03-02 23:00:00,
2013-03-02 18:09:00,24.8,5.0,30.02,WNW,294,0.0,5.0,42,0.00,,,-99.99,Weather View 32 v60,2013-03-02 23:09:00,
2013-03-02 18:15:00,24.6,4.8,30.02,WNW,294,0.0,5.0,42,0.00,,,-99.99,Weather View 32 v60,2013-03-02 23:15:00,
2013-03-02 18:20:00,24.6,4.8,30.02,WNW,294,0.0,5.0,42,0.00,,,-99.99,Weather View 32 v60,2013-03-02 23:20:00,
2013-03-02 18:30:00,24.4,4.6,30.02,WNW,294,0.0,5.0,42,0.00,,,-99.99,Weather View 32 v60,2013-03-02 23:30:00,
2013-03-02 18:35:00,24.4,5.1,30.02,WNW,288,0.0,5.0,43,0.00,,,-99.99,Weather View 32 v60,2013-03-02 23:35:00,
2013-03-02 18:40:00,24.4,5.1,30.02,WNW,288,0.0,5.0,43,0.00,,,-99.99,Weather View 32 v60,2013-03-02 23:40:00,
2013-03-02 18:45:00,24.3,5.0,30.02,WNW,288,0.0,4.0,43,0.00,,,-99.99,Weather View 32 v60,2013-03-02 23:45:00,
2013-03-02 18:50:00,24.3,5.0,30.02,WNW,288,0.0,4.0,43,0.00,,,-99.99,Weather View 32 v60,2013-03-02 23:50:00,
2013-03-02 18:55:00,24.1,4.3,30.02,WNW,290,0.0,4.0,42,0.00,,,-99.99,Weather View 32 v60,2013-03-02 23:55:00,
2013-03-02 19:05:00,23.7,4.0,30.02,WNW,290,0.0,0.0,42,0.00,,,-99.99,Weather View 32 v60,2013-03-03 00:05:00,
2013-03-02 19:10:00,23.5,3.8,30.02,WNW,290,0.0,0.0,42,0.00,,,-99.99,Weather View 32 v60,2013-03-03 00:10:00,
2013-03-02 19:14:00,23.2,3.5,30.02,WNW,290,0.0,0.0,42,0.00,,,-99.99,Weather View 32 v60,2013-03-03 00:14:00,
2013-03-02 19:19:00,23.0,3.8,30.02,WNW,290,4.0,5.0,43,0.00,,,-99.99,Weather View 32 v60,2013-03-03 00:19:00,
2013-03-02 19:24:00,22.8,3.2,30.02,WNW,285,4.0,6.0,42,0.00,,,-99.99,Weather View 32 v60,2013-03-03 00:24:00,
2013-03-02 19:29:00,22.5,2.8,30.02,WNW,291,4.0,6.0,42,0.00,,,-99.99,Weather View 32 v60,2013-03-03 00:29:00,
2013-03-02 19:34:00,22.3,2.7,30.02,WNW,292,4.0,6.0,42,0.00,,,-99.99,Weather View 32 v60,2013-03-03 00:34:00,
2013-03-02 19:44:00,21.9,2.3,30.02,WNW,299,4.0,8.0,42,0.00,,,-99.99,Weather View 32 v60,2013-03-03 00:44:00,
2013-03-02 19:49:00,21.9,2.8,30.02,WNW,295,4.0,8.0,43,0.00,,,-99.99,Weather View 32 v60,2013-03-03 00:49:00,
2013-03-02 19:54:00,21.9,2.8,30.02,WNW,296,6.0,8.0,43,0.00,,,-99.99,Weather View 32 v60,2013-03-03 00:54:00,
2013-03-02 19:59:00,21.9,2.8,30.02,WNW,299,6.0,8.0,43,0.00,,,-99.99,Weather View 32 v60,2013-03-03 00:59:00,
2013-03-02 20:04:00,21.9,2.8,30.02,WNW,301,5.0,8.0,43,0.00,,,-99.99,Weather View 32 v60,2013-03-03 01:04:00,
2013-03-02 20:09:00,21.7,2.7,30.02,WNW,293,4.0,8.0,43,0.00,,,-99.99,Weather View 32 v60,2013-03-03 01:09:00,
2013-03-02 20:19:00,21.7,2.7,30.02,NW,314,3.0,8.0,43,0.00,,,-99.99,Weather View 32 v60,2013-03-03 01:19:00,
2013-03-02 20:24:00,21.6,2.5,30.02,NW,308,4.0,8.0,43,0.00,,,-99.99,Weather View 32 v60,2013-03-03 01:24:00,
2013-03-02 20:29:00,21.6,2.5,30.02,NW,309,3.0,8.0,43,0.00,,,-99.99,Weather View 32 v60,2013-03-03 01:29:00,
2013-03-02 20:34:00,21.4,2.3,30.02,WNW,302,3.0,8.0,43,0.00,,,-99.99,Weather View 32 v60,2013-03-03 01:34:00,
2013-03-02 20:39:00,21.4,2.3,30.02,NW,315,4.0,7.0,43,0.00,,,-99.99,Weather View 32 v60,2013-03-03 01:39:00,
2013-03-02 20:44:00,21.2,2.2,30.02,WNW,297,3.0,7.0,43,0.00,,,-99.99,Weather View 32 v60,2013-03-03 01:44:00,
2013-03-02 20:49:00,21.0,2.0,30.02,WNW,294,3.0,7.0,43,0.00,,,-99.99,Weather View 32 v60,2013-03-03 01:49:00,
2013-03-02 20:54:00,21.0,2.0,30.02,WNW,299,2.0,7.0,43,0.00,,,-99.99,Weather View 32 v60,2013-03-03 01:54:00,
2013-03-02 21:00:00,20.8,1.9,30.02,WNW,297,2.0,7.0,43,0.00,,,-99.99,Weather View 32 v60,2013-03-03 02:00:00,
2013-03-02 21:09:00,20.5,1.5,30.02,WNW,298,0.0,6.0,43,0.00,,,-99.99,Weather View 32 v60,2013-03-03 02:09:00,
2013-03-02 21:14:00,20.5,1.5,30.02,WNW,298,0.0,6.0,43,0.00,,,-99.99,Weather View 32 v60,2013-03-03 02:14:00,
2013-03-02 21:19:00,20.3,1.4,30.02,NW,306,0.0,6.0,43,0.00,,,-99.99,Weather View 32 v60,2013-03-03 02:19:00,
2013-03-02 21:25:00,20.3,1.4,30.02,NW,319,0.0,5.0,43,0.00,,,-99.99,Weather View 32 v60,2013-03-03 02:25:00,
2013-03-02 21:34:00,20.1,1.7,30.02,NW,319,0.0,5.0,44,0.00,,,-99.99,Weather View 32 v60,2013-03-03 02:34:00,
2013-03-02 21:39:00,19.9,1.5,30.05,NW,319,0.0,4.0,44,0.00,,,-99.99,Weather View 32 v60,2013-03-03 02:39:00,
2013-03-02 21:44:00,19.9,1.5,30.05,NW,322,0.0,4.0,44,0.00,,,-99.99,Weather View 32 v60,2013-03-03 02:44:00,
2013-03-02 21:54:00,19.6,1.2,30.05,NW,322,0.0,4.0,44,0.00,,,-99.99,Weather View 32 v60,2013-03-03 02:54:00,
2013-03-02 21:59:00,19.6,1.2,30.05,NW,322,0.0,4.0,44,0.00,,,-99.99,Weather View 32 v60,2013-03-03 02:59:00,
2013-03-02 22:04:00,19.4,1.0,30.05,NW,322,0.0,4.0,44,0.00,,,-99.99,Weather View 32 v60,2013-03-03 03:04:00,
2013-03-02 22:09:00,19.4,1.0,30.05,NW,322,0.0,4.0,44,0.00,,,-99.99,Weather View 32 v60,2013-03-03 03:09:00,
2013-03-02 22:14:00,19.2,0.9,30.05,NW,322,0.0,4.0,44,0.00,,,-99.99,Weather View 32 v60,2013-03-03 03:14:00,
2013-03-02 22:19:00,19.0,0.7,30.05,NW,322,0.0,4.0,44,0.00,,,-99.99,Weather View 32 v60,2013-03-03 03:19:00,
2013-03-02 22:25:00,19.0,0.7,30.05,NW,322,0.0,4.0,44,0.00,,,-99.99,Weather View 32 v60,2013-03-03 03:25:00,
2013-03-02 22:34:00,18.7,0.4,30.05,NW,322,0.0,4.0,44,0.00,,,-99.99,Weather View 32 v60,2013-03-03 03:34:00,
2013-03-02 22:39:00,18.5,0.2,30.02,NW,322,0.0,4.0,44,0.00,,,-99.99,Weather View 32 v60,2013-03-03 03:39:00,
2013-03-02 22:44:00,18.5,0.2,30.02,NW,322,0.0,0.0,44,0.00,,,-99.99,Weather View 32 v60,2013-03-03 03:44:00,
2013-03-02 22:49:00,18.3,0.0,30.02,NW,322,0.0,0.0,44,0.00,,,-99.99,Weather View 32 v60,2013-03-03 03:49:00,
2013-03-02 22:54:00,18.3,0.0,30.02,NW,322,0.0,0.0,44,0.00,,,-99.99,Weather View 32 v60,2013-03-03 03:54:00,
2013-03-02 22:59:00,18.1,0.4,30.02,NW,322,0.0,0.0,45,0.00,,,-99.99,Weather View 32 v60,2013-03-03 03:59:00,
2013-03-02 23:04:00,18.0,0.2,30.02,NW,322,0.0,0.0,45,0.00,,,-99.99,Weather View 32 v60,2013-03-03 04:04:00,
2013-03-02 23:14:00,17.8,0.0,30.02,NW,322,0.0,0.0,45,0.00,,,-99.99,Weather View 32 v60,2013-03-03 04:14:00,
2013-03-02 23:19:00,17.6,-0.1,30.02,NW,322,0.0,0.0,45,0.00,,,-99.99,Weather View 32 v60,2013-03-03 04:19:00,
2013-03-02 23:24:00,17.6,-0.1,30.02,NW,322,0.0,0.0,45,0.00,,,-99.99,Weather View 32 v60,2013-03-03 04:24:00,
2013-03-02 23:29:00,17.4,-0.3,30.02,NW,322,0.0,0.0,45,0.00,,,-99.99,Weather View 32 v60,2013-03-03 04:29:00,
2013-03-02 23:34:00,17.2,-0.5,30.02,NW,322,0.0,0.0,45,0.00,,,-99.99,Weather View 32 v60,2013-03-03 04:34:00,
2013-03-02 23:39:00,17.1,-0.6,30.02,NW,322,0.0,0.0,45,0.00,,,-99.99,Weather View 32 v60,2013-03-03 04:39:00,
2013-03-02 23:49:00,16.9,-0.8,30.02,NW,322,0.0,0.0,45,0.00,,,-99.99,Weather View 32 v60,2013-03-03 04:49:00,
2013-03-02 23:54:00,16.5,-1.1,30.02,NW,322,0.0,0.0,45,0.00,,,-99.99,Weather View 32 v60,2013-03-03 04:54:00,
2013-03-02 23:59:00,16.3,-1.3,30.02,NW,322,0.0,0.0,45,0.00,,,-99.99,Weather View 32 v60,2013-03-03 04:59:00,